createdAt,value
2019-02-24T00:00:45.453Z,48.64
2019-02-24T00:03:17.529Z,48.59
2019-02-24T00:05:49.427Z,49.08
2019-02-24T00:08:21.690Z,49.71
2019-02-24T00:10:54.390Z,49.69
2019-02-24T00:13:26.098Z,50.24
2019-02-24T00:15:58.737Z,49.20
2019-02-24T00:18:42.025Z,49.62
2019-02-24T00:21:13.669Z,50.26
2019-02-24T00:23:45.377Z,50.63
2019-02-24T00:26:17.097Z,49.59
2019-02-24T00:28:49.025Z,49.76
2019-02-24T00:31:21.263Z,50.29
2019-02-24T00:33:52.985Z,50.43
2019-02-24T00:36:26.581Z,50.66
2019-02-24T00:38:58.461Z,51.21
2019-02-24T00:41:31.116Z,51.28
2019-02-24T00:44:02.738Z,50.77
2019-02-24T00:46:35.288Z,50.91
2019-02-24T00:49:07.242Z,51.02
2019-02-24T00:51:38.869Z,51.21
2019-02-24T00:54:10.560Z,51.49
2019-02-24T00:56:42.377Z,51.45
2019-02-24T00:59:15.266Z,52.00
2019-02-24T01:01:46.957Z,51.58
2019-02-24T01:04:18.621Z,50.64
2019-02-24T01:06:50.474Z,49.96
2019-02-24T01:09:22.324Z,50.24
2019-02-24T01:11:54.534Z,50.48
2019-02-24T01:14:26.239Z,50.26
2019-02-24T01:16:58.267Z,50.03
2019-02-24T01:19:30.020Z,50.40
2019-02-24T01:22:01.501Z,50.49
2019-02-24T01:24:33.030Z,49.95
2019-02-24T01:27:04.819Z,50.18
2019-02-24T01:29:36.441Z,50.45
2019-02-24T01:32:08.006Z,49.83
2019-02-24T01:34:39.635Z,49.98
2019-02-24T01:37:11.341Z,50.69
2019-02-24T01:39:43.150Z,50.75
2019-02-24T01:42:14.676Z,51.73
2019-02-24T01:44:46.207Z,51.99
2019-02-24T01:47:17.736Z,52.33
2019-02-24T01:49:49.365Z,52.16
2019-02-24T01:52:20.905Z,52.43
2019-02-24T01:54:52.591Z,51.15
2019-02-24T01:57:24.157Z,51.72
2019-02-24T01:59:55.909Z,51.99
2019-02-24T02:02:27.462Z,52.01
2019-02-24T02:05:00.295Z,51.52
2019-02-24T02:07:31.889Z,52.11
2019-02-24T02:10:03.382Z,52.66
2019-02-24T02:12:35.064Z,52.75
2019-02-24T02:15:07.159Z,52.39
2019-02-24T02:17:38.840Z,52.64
2019-02-24T02:20:10.827Z,52.74
2019-02-24T02:22:42.494Z,52.96
2019-02-24T02:25:14.128Z,53.33
2019-02-24T02:27:45.631Z,53.91
2019-02-24T02:30:17.342Z,53.36
2019-02-24T02:32:49.064Z,53.27
2019-02-24T02:35:21.022Z,53.01
2019-02-24T02:37:52.811Z,52.94
2019-02-24T02:40:24.471Z,51.89
2019-02-24T02:42:56.068Z,51.53
2019-02-24T02:45:28.188Z,51.64
2019-02-24T02:47:59.888Z,51.35
2019-02-24T02:50:31.501Z,50.51
2019-02-24T02:53:03.120Z,50.70
2019-02-24T02:55:34.814Z,50.97
2019-02-24T02:58:06.375Z,50.62
2019-02-24T03:00:38.248Z,50.46
2019-02-24T03:03:09.766Z,49.94
2019-02-24T03:05:45.022Z,50.47
2019-02-24T03:08:16.603Z,51.13
2019-02-24T03:10:48.269Z,51.22
2019-02-24T03:13:19.967Z,51.39
2019-02-24T03:15:51.628Z,51.56
2019-02-24T03:18:23.407Z,51.22
2019-02-24T03:20:55.096Z,50.99
2019-02-24T03:23:27.202Z,51.26
2019-02-24T03:25:58.900Z,51.61
2019-02-24T03:28:30.615Z,51.34
2019-02-24T03:31:02.211Z,51.16
2019-02-24T03:33:33.816Z,51.63
2019-02-24T03:36:05.618Z,51.57
2019-02-24T03:38:37.375Z,51.28
2019-02-24T03:41:09.200Z,51.50
2019-02-24T03:43:40.852Z,51.72
2019-02-24T03:46:12.654Z,51.91
2019-02-24T03:48:44.472Z,51.88
2019-02-24T03:51:16.109Z,51.87
2019-02-24T03:53:47.562Z,51.91
2019-02-24T03:56:19.226Z,51.98
2019-02-24T03:58:50.877Z,51.82
2019-02-24T04:01:22.664Z,51.72
2019-02-24T04:03:54.229Z,51.31
2019-02-24T04:06:25.840Z,51.50
2019-02-24T04:08:57.578Z,51.40
2019-02-24T04:11:29.330Z,51.63
2019-02-24T04:14:01.132Z,51.71
2019-02-24T04:16:32.751Z,51.91
2019-02-24T04:19:04.236Z,52.35
2019-02-24T04:21:35.911Z,52.58
2019-02-24T04:24:07.730Z,52.44
2019-02-24T04:26:39.298Z,52.56
2019-02-24T04:29:11.251Z,53.18
2019-02-24T04:31:42.981Z,52.99
2019-02-24T04:34:15.683Z,53.58
2019-02-24T04:36:47.193Z,53.68
2019-02-24T04:39:19.875Z,53.16
2019-02-24T04:41:51.373Z,53.80
2019-02-24T04:44:23.261Z,53.76
2019-02-24T04:46:54.930Z,54.12
2019-02-24T04:49:26.597Z,54.71
2019-02-24T04:51:59.944Z,54.86
2019-02-24T04:54:31.615Z,55.09
2019-02-24T04:57:03.210Z,55.07
2019-02-24T04:59:35.404Z,55.78
2019-02-24T05:02:07.097Z,55.57
2019-02-24T05:04:38.672Z,55.71
2019-02-24T05:07:10.232Z,56.32
2019-02-24T05:09:41.750Z,56.84
2019-02-24T05:12:13.546Z,56.95
2019-02-24T05:14:45.135Z,57.24
2019-02-24T05:17:16.878Z,57.50
2019-02-24T05:19:48.535Z,57.15
2019-02-24T05:22:20.143Z,56.96
2019-02-24T05:24:51.820Z,57.02
2019-02-24T05:27:23.456Z,57.26
2019-02-24T05:29:55.278Z,57.71
2019-02-24T05:32:26.815Z,57.91
2019-02-24T05:34:58.356Z,56.82
2019-02-24T05:37:30.116Z,56.48
2019-02-24T05:40:01.599Z,56.74
2019-02-24T05:42:33.211Z,57.39
2019-02-24T05:45:05.030Z,57.23
2019-02-24T05:47:36.628Z,56.87
2019-02-24T05:50:08.777Z,56.91
2019-02-24T05:52:40.488Z,57.17
2019-02-24T05:55:12.137Z,57.46
2019-02-24T05:57:43.711Z,57.68
2019-02-24T06:00:15.320Z,57.95
2019-02-24T06:02:46.914Z,58.37
2019-02-24T06:05:18.541Z,57.82
2019-02-24T06:07:50.223Z,57.99
2019-02-24T06:10:21.974Z,58.18
2019-02-24T06:12:53.799Z,58.35
2019-02-24T06:15:25.620Z,57.51
2019-02-24T06:17:57.241Z,57.52
2019-02-24T06:20:28.852Z,57.10
2019-02-24T06:23:00.705Z,56.85
2019-02-24T06:25:35.442Z,56.48
2019-02-24T06:28:07.125Z,56.42
2019-02-24T06:30:38.952Z,53.41
2019-02-24T06:33:10.779Z,50.02
2019-02-24T06:35:42.530Z,48.26
2019-02-24T06:38:14.152Z,46.49
2019-02-24T06:40:45.590Z,44.21
2019-02-24T06:43:20.009Z,42.97
2019-02-24T06:45:52.210Z,42.10
2019-02-24T06:48:24.005Z,40.74
2019-02-24T06:51:09.866Z,40.26
2019-02-24T06:53:44.318Z,38.40
2019-02-24T06:56:18.615Z,37.68
2019-02-24T06:58:50.331Z,36.32
2019-02-24T07:01:22.144Z,35.08
2019-02-24T07:03:54.611Z,34.22
2019-02-24T07:06:26.385Z,32.76
2019-02-24T07:08:58.221Z,31.70
2019-02-24T07:11:29.675Z,32.53
2019-02-24T07:14:01.134Z,31.65
2019-02-24T07:16:32.837Z,31.02
2019-02-24T07:19:04.548Z,30.68
2019-02-24T07:21:36.423Z,29.29
2019-02-24T07:24:08.141Z,27.88
2019-02-24T07:26:40.096Z,27.67
2019-02-24T07:29:11.912Z,27.60
2019-02-24T07:31:43.575Z,27.69
2019-02-24T07:34:15.301Z,27.40
2019-02-24T07:36:47.510Z,27.28
2019-02-24T07:39:19.314Z,29.41
2019-02-24T07:41:50.869Z,28.57
2019-02-24T07:44:22.814Z,28.50
2019-02-24T07:46:54.750Z,28.03
2019-02-24T07:49:27.964Z,26.91
2019-02-24T07:52:00.138Z,27.03
2019-02-24T07:54:31.848Z,26.63
2019-02-24T07:57:03.688Z,25.48
2019-02-24T07:59:35.813Z,25.29
2019-02-24T08:02:08.461Z,24.97
2019-02-24T08:04:43.143Z,23.97
2019-02-24T08:07:16.411Z,26.29
2019-02-24T08:09:48.274Z,25.53
2019-02-24T08:12:20.480Z,23.58
2019-02-24T08:14:53.165Z,23.09
2019-02-24T08:17:24.764Z,23.76
2019-02-24T08:19:56.468Z,23.40
2019-02-24T08:22:28.468Z,24.50
2019-02-24T08:25:00.630Z,23.65
2019-02-24T08:27:32.441Z,23.28
2019-02-24T08:30:04.583Z,23.75
2019-02-24T08:32:38.083Z,24.24
2019-02-24T08:35:10.036Z,23.51
2019-02-24T08:37:41.736Z,22.48
2019-02-24T08:40:14.260Z,21.43
2019-02-24T08:42:47.288Z,21.51
2019-02-24T08:45:20.534Z,21.35
2019-02-24T08:47:52.941Z,22.01
2019-02-24T08:50:25.121Z,19.69
2019-02-24T08:52:57.003Z,22.56
2019-02-24T08:55:29.588Z,20.69
2019-02-24T08:58:01.402Z,19.20
2019-02-24T09:00:33.187Z,22.22
2019-02-24T09:03:05.596Z,20.31
2019-02-24T09:05:38.706Z,19.23
2019-02-24T09:08:10.671Z,17.74
2019-02-24T09:10:42.640Z,17.63
2019-02-24T09:13:14.981Z,17.83
2019-02-24T09:15:47.933Z,17.83
2019-02-24T09:18:20.296Z,19.14
2019-02-24T09:20:52.467Z,19.58
2019-02-24T09:23:24.958Z,19.41
2019-02-24T09:25:58.427Z,17.80
2019-02-24T09:28:31.050Z,16.91
2019-02-24T09:31:04.117Z,16.62
2019-02-24T09:33:36.246Z,17.81
2019-02-24T09:36:11.332Z,18.08
2019-02-24T09:38:43.225Z,18.14
2019-02-24T09:41:15.317Z,18.34
2019-02-24T09:43:48.552Z,19.30
2019-02-24T09:46:20.890Z,19.26
2019-02-24T09:48:53.312Z,19.06
2019-02-24T09:51:25.923Z,18.42
2019-02-24T09:53:58.459Z,17.85
2019-02-24T09:56:30.448Z,16.64
2019-02-24T09:59:03.403Z,17.08
2019-02-24T10:01:35.620Z,17.87
2019-02-24T10:04:07.741Z,18.17
2019-02-24T10:06:40.809Z,17.97
2019-02-24T10:09:13.444Z,17.22
2019-02-24T10:11:46.656Z,19.71
2019-02-24T10:14:18.664Z,19.59
2019-02-24T10:16:51.305Z,19.52
2019-02-24T10:19:23.113Z,18.45
2019-02-24T10:21:55.100Z,18.64
2019-02-24T10:24:28.043Z,18.99
2019-02-24T10:27:00.147Z,18.21
2019-02-24T10:29:35.213Z,17.75
2019-02-24T10:32:07.286Z,17.03
2019-02-24T10:34:39.502Z,16.44
2019-02-24T10:37:11.698Z,16.23
2019-02-24T10:39:44.088Z,16.03
2019-02-24T10:42:15.899Z,15.17
2019-02-24T10:44:47.774Z,15.42
2019-02-24T10:47:20.285Z,15.60
2019-02-24T10:49:52.221Z,15.97
2019-02-24T10:52:24.916Z,15.91
2019-02-24T10:54:57.028Z,15.50
2019-02-24T10:57:29.058Z,15.95
2019-02-24T11:00:01.070Z,15.92
2019-02-24T11:02:34.364Z,14.73
2019-02-24T11:05:06.727Z,15.95
2019-02-24T11:07:39.508Z,15.43
2019-02-24T11:10:13.975Z,16.05
2019-02-24T11:12:46.152Z,16.96
2019-02-24T11:15:18.416Z,16.99
2019-02-24T11:17:50.433Z,16.97
2019-02-24T11:20:22.556Z,16.81
2019-02-24T11:22:55.119Z,16.38
2019-02-24T11:25:26.977Z,15.46
2019-02-24T11:27:59.515Z,16.34
2019-02-24T11:30:33.671Z,16.25
2019-02-24T11:33:06.769Z,16.97
2019-02-24T11:35:39.604Z,16.50
2019-02-24T11:38:11.573Z,16.81
2019-02-24T11:40:43.765Z,16.94
2019-02-24T11:43:16.034Z,16.49
2019-02-24T11:45:48.330Z,15.53
2019-02-24T11:48:21.668Z,15.19
2019-02-24T11:50:53.627Z,16.44
2019-02-24T11:53:25.907Z,16.19
2019-02-24T11:55:59.230Z,17.41
2019-02-24T11:58:32.203Z,17.11
2019-02-24T12:01:04.695Z,18.22
2019-02-24T12:03:36.820Z,18.07
2019-02-24T12:06:09.096Z,17.47
2019-02-24T12:08:41.231Z,17.55
2019-02-24T12:11:14.499Z,16.70
2019-02-24T12:13:46.579Z,15.80
2019-02-24T12:16:19.257Z,14.94
2019-02-24T12:18:51.993Z,13.99
2019-02-24T12:21:23.919Z,13.58
2019-02-24T12:23:55.803Z,12.58
2019-02-24T12:26:28.095Z,12.22
2019-02-24T12:29:00.017Z,12.41
2019-02-24T12:31:32.080Z,12.84
2019-02-24T12:34:04.245Z,12.07
2019-02-24T12:36:36.581Z,12.04
2019-02-24T12:39:08.796Z,12.87
2019-02-24T12:41:40.868Z,13.65
2019-02-24T12:44:12.976Z,14.56
2019-02-24T12:46:45.876Z,14.92
2019-02-24T12:49:18.558Z,14.49
2019-02-24T12:51:51.329Z,13.34
2019-02-24T12:54:23.740Z,11.95
2019-02-24T12:56:56.032Z,11.66
2019-02-24T12:59:28.648Z,12.14
2019-02-24T13:02:05.679Z,11.32
2019-02-24T13:04:35.133Z,11.54
2019-02-24T13:07:07.861Z,11.37
2019-02-24T13:09:41.329Z,11.67
2019-02-24T13:12:13.602Z,11.93
2019-02-24T13:14:46.417Z,12.41
2019-02-24T13:17:19.308Z,13.28
2019-02-24T13:19:51.371Z,13.18
2019-02-24T13:22:23.687Z,13.45
2019-02-24T13:24:56.215Z,13.97
2019-02-24T13:27:28.206Z,13.17
2019-02-24T13:30:00.376Z,13.63
2019-02-24T14:08:19.351Z,13.76
2019-02-24T14:10:52.271Z,13.75
2019-02-24T14:13:24.245Z,13.87
2019-02-24T14:15:56.261Z,13.50
2019-02-24T14:18:29.812Z,13.80
2019-02-24T14:21:03.372Z,14.11
2019-02-24T14:23:36.582Z,14.68
2019-02-24T14:26:08.451Z,14.62
2019-02-24T14:28:41.284Z,14.04
2019-02-24T14:31:14.471Z,14.62
2019-02-24T14:33:47.435Z,14.71
2019-02-24T14:36:20.245Z,15.35
2019-02-24T14:38:52.897Z,15.29
2019-02-24T14:41:26.114Z,15.20
2019-02-24T14:43:58.762Z,14.80
2019-02-24T14:46:31.490Z,15.04
2019-02-24T14:49:03.886Z,15.13
2019-02-24T14:51:36.912Z,15.55
2019-02-24T14:54:10.455Z,15.19
2019-02-24T14:56:43.723Z,15.65
2019-02-24T14:59:16.514Z,15.47
2019-02-24T15:01:49.160Z,15.26
2019-02-24T15:04:21.663Z,14.64
2019-02-24T15:06:53.833Z,13.54
2019-02-24T15:09:27.542Z,13.68
2019-02-24T15:11:59.776Z,14.13
2019-02-24T15:14:31.682Z,13.86
2019-02-24T15:17:03.757Z,13.80
2019-02-24T15:19:35.455Z,13.80
2019-02-24T15:22:08.351Z,13.91
2019-02-24T15:24:40.567Z,13.65
2019-02-24T15:27:13.138Z,13.73
2019-02-24T15:29:45.013Z,13.93
2019-02-24T15:32:17.518Z,13.97
2019-02-24T15:34:49.881Z,14.04
2019-02-24T15:37:21.908Z,13.36
2019-02-24T15:39:54.198Z,13.12
2019-02-24T15:42:26.151Z,12.73
2019-02-24T15:44:59.742Z,13.28
2019-02-24T15:47:31.835Z,13.87
2019-02-24T15:50:05.952Z,14.36
2019-02-24T15:52:38.981Z,14.97
2019-02-24T15:55:13.697Z,15.09
2019-02-24T15:57:46.359Z,15.28
2019-02-24T16:00:21.490Z,15.67
2019-02-24T16:03:01.190Z,15.87
2019-02-24T16:05:28.748Z,16.38
2019-02-24T16:08:04.117Z,16.56
2019-02-24T16:10:38.169Z,16.72
2019-02-24T16:13:17.049Z,17.26
2019-02-24T16:15:48.417Z,17.68
2019-02-24T16:18:22.112Z,18.34
2019-02-24T16:20:56.447Z,18.48
2019-02-24T16:23:30.494Z,19.13
2019-02-24T16:26:05.143Z,19.52
2019-02-24T16:28:39.415Z,20.11
2019-02-24T16:31:13.109Z,20.11
2019-02-24T16:33:46.986Z,21.00
2019-02-24T16:36:20.798Z,21.23
2019-02-24T16:38:54.626Z,22.25
2019-02-24T16:41:30.907Z,22.71
2019-02-24T16:44:04.732Z,23.27
2019-02-24T16:46:39.552Z,23.97
2019-02-24T16:49:12.992Z,25.14
2019-02-24T16:51:46.290Z,25.43
2019-02-24T16:54:20.178Z,25.31
2019-02-24T16:56:54.142Z,26.08
2019-02-24T16:59:28.184Z,26.99
2019-02-24T17:02:02.327Z,27.39
2019-02-24T17:04:36.199Z,28.26
2019-02-24T17:07:09.946Z,28.27
2019-02-24T17:09:47.114Z,28.98
2019-02-24T17:12:21.293Z,28.99
2019-02-24T17:14:58.181Z,29.60
2019-02-24T17:17:31.363Z,29.92
2019-02-24T17:20:04.583Z,30.51
2019-02-24T17:22:39.781Z,30.71
2019-02-24T17:25:16.385Z,31.21
2019-02-24T17:27:50.015Z,31.05
2019-02-24T17:30:23.938Z,31.20
2019-02-24T17:32:57.839Z,31.55
2019-02-24T17:35:31.854Z,31.74
2019-02-24T17:38:05.706Z,32.11
2019-02-24T17:40:39.434Z,33.11
2019-02-24T17:43:13.964Z,34.33
2019-02-24T17:45:47.801Z,35.68
2019-02-24T17:48:21.180Z,35.49
2019-02-24T17:50:55.020Z,35.19
2019-02-24T17:53:29.114Z,34.86
2019-02-24T17:56:03.006Z,35.32
2019-02-24T17:58:37.017Z,35.09
2019-02-24T18:01:11.357Z,35.33
2019-02-24T18:03:44.388Z,34.75
2019-02-24T18:06:20.955Z,34.74
2019-02-24T18:08:54.383Z,35.16
2019-02-24T18:11:28.391Z,35.82
2019-02-24T18:14:01.303Z,35.90
2019-02-24T18:16:34.677Z,34.11
2019-02-24T18:19:08.709Z,34.68
2019-02-24T18:21:41.583Z,34.27
2019-02-24T18:24:15.116Z,34.47
2019-02-24T18:26:47.236Z,34.65
2019-02-24T18:29:20.103Z,35.07
2019-02-24T18:31:52.972Z,35.38
2019-02-24T18:34:27.567Z,35.14
2019-02-24T18:37:00.176Z,35.12
2019-02-24T18:39:33.166Z,35.90
2019-02-24T18:42:06.245Z,35.76
2019-02-24T18:44:38.941Z,35.20
2019-02-24T18:47:13.897Z,35.74
2019-02-24T18:49:49.300Z,35.71
2019-02-24T18:52:22.340Z,35.37
2019-02-24T18:54:54.625Z,35.60
2019-02-24T18:57:28.040Z,35.69
2019-02-24T19:00:02.868Z,36.06
2019-02-24T19:02:35.181Z,36.19
2019-02-24T19:05:08.866Z,36.40
2019-02-24T19:07:42.576Z,36.47
2019-02-24T19:10:16.944Z,36.46
2019-02-24T19:12:49.758Z,36.58
2019-02-24T19:15:24.205Z,36.63
2019-02-24T19:17:56.925Z,37.27
2019-02-24T19:20:29.956Z,37.46
2019-02-24T19:23:02.882Z,37.89
2019-02-24T19:25:35.217Z,38.48
2019-02-24T19:28:07.826Z,38.35
2019-02-24T19:30:40.799Z,37.76
2019-02-24T19:33:14.401Z,38.01
2019-02-24T19:35:47.090Z,38.38
2019-02-24T19:38:19.842Z,37.86
2019-02-24T19:40:53.097Z,36.55
2019-02-24T19:43:25.528Z,37.01
2019-02-24T19:45:57.942Z,37.63
2019-02-24T19:48:32.291Z,37.63
2019-02-24T19:51:05.015Z,38.01
2019-02-24T19:53:37.604Z,38.31
2019-02-24T19:56:10.500Z,38.92
2019-02-24T19:58:46.951Z,38.86
2019-02-24T20:01:18.830Z,39.24
2019-02-24T20:03:52.933Z,38.88
2019-02-24T20:06:24.962Z,38.01
2019-02-24T20:08:58.471Z,38.19
2019-02-24T20:11:30.581Z,38.54
2019-02-24T20:14:02.532Z,38.46
2019-02-24T20:16:34.695Z,38.60
2019-02-24T20:19:07.092Z,38.42
2019-02-24T20:21:39.664Z,38.57
2019-02-24T20:24:14.364Z,38.67
2019-02-24T20:26:47.595Z,38.75
2019-02-24T20:29:20.305Z,38.88
2019-02-24T20:31:52.201Z,39.15
2019-02-24T20:34:25.734Z,39.36
2019-02-24T20:37:00.912Z,39.46
2019-02-24T20:39:33.127Z,40.03
2019-02-24T20:42:05.471Z,40.17
2019-02-24T20:44:39.642Z,40.16
2019-02-24T20:47:12.918Z,40.36
2019-02-24T20:49:45.850Z,40.36
2019-02-24T20:52:18.512Z,39.72
2019-02-24T20:54:51.172Z,39.79
2019-02-24T20:57:24.060Z,39.95
2019-02-24T20:59:56.882Z,40.11
2019-02-24T21:02:29.612Z,40.45
2019-02-24T21:05:02.363Z,40.84
2019-02-24T21:07:34.487Z,41.00
2019-02-24T21:10:06.531Z,41.27
2019-02-24T21:12:38.977Z,40.52
2019-02-24T21:15:12.555Z,40.59
2019-02-24T21:17:44.947Z,41.05
2019-02-24T21:20:20.411Z,41.29
2019-02-24T21:22:52.203Z,41.64
2019-02-24T21:25:24.314Z,41.02
2019-02-24T21:27:57.141Z,41.17
2019-02-24T21:30:31.689Z,41.54
2019-02-24T21:33:05.578Z,41.64
2019-02-24T21:35:38.081Z,40.95
2019-02-24T21:38:09.934Z,40.17
2019-02-24T21:40:42.020Z,40.24
2019-02-24T21:43:14.443Z,40.34
2019-02-24T21:45:46.921Z,40.52
2019-02-24T21:48:20.195Z,40.13
2019-02-24T21:50:52.952Z,40.17
2019-02-24T21:53:25.074Z,40.43
2019-02-24T21:55:57.626Z,40.57
2019-02-24T21:58:29.661Z,40.15
2019-02-24T22:01:01.713Z,40.85
2019-02-24T22:03:33.555Z,41.26
2019-02-24T22:06:05.659Z,41.22
2019-02-24T22:08:37.677Z,41.74
2019-02-24T22:11:10.185Z,41.73
2019-02-24T22:13:42.795Z,41.13
2019-02-24T22:16:15.213Z,41.37
2019-02-24T22:18:46.964Z,41.62
2019-02-24T22:21:19.462Z,41.67
2019-02-24T22:23:52.084Z,42.01
2019-02-24T22:26:23.849Z,42.24
2019-02-24T22:28:55.504Z,42.40
2019-02-24T22:31:27.477Z,42.95
2019-02-24T22:33:59.452Z,43.41
2019-02-24T22:36:31.377Z,43.96
2019-02-24T22:39:03.394Z,43.68
2019-02-24T22:41:35.407Z,43.99
2019-02-24T22:44:07.300Z,43.76
2019-02-24T22:46:39.030Z,43.70
2019-02-24T22:49:10.866Z,44.50
2019-02-24T22:51:42.579Z,44.91
2019-02-24T22:54:14.614Z,44.89
2019-02-24T22:56:46.402Z,45.00
2019-02-24T22:59:18.181Z,45.04
2019-02-24T23:01:51.287Z,45.49
2019-02-24T23:04:23.434Z,45.67
2019-02-24T23:06:55.237Z,45.47
2019-02-24T23:09:26.948Z,45.69
2019-02-24T23:12:00.543Z,45.50
2019-02-24T23:14:32.408Z,45.30
2019-02-24T23:17:04.180Z,45.65
2019-02-24T23:19:35.932Z,45.74
2019-02-24T23:22:07.679Z,45.85
2019-02-24T23:24:39.459Z,46.25
2019-02-24T23:27:11.084Z,46.72
2019-02-24T23:29:43.223Z,46.84
2019-02-24T23:32:14.818Z,47.34
2019-02-24T23:34:46.589Z,48.08
2019-02-24T23:37:18.712Z,48.53
2019-02-24T23:39:50.726Z,49.02
2019-02-24T23:42:22.562Z,49.06
2019-02-24T23:44:54.284Z,49.25
2019-02-24T23:47:26.415Z,48.92
2019-02-24T23:49:58.142Z,48.98
2019-02-24T23:52:29.617Z,49.29
2019-02-24T23:55:01.222Z,49.31
2019-02-24T23:57:33.078Z,49.37
